createdAt,value
2019-01-28T00:00:49.581Z,-0.10
2019-01-28T00:03:20.415Z,-0.20
2019-01-28T00:05:51.006Z,-0.20
2019-01-28T00:08:21.465Z,-0.30
2019-01-28T00:10:52.005Z,-0.30
2019-01-28T00:13:22.469Z,-0.30
2019-01-28T00:15:54.724Z,-0.30
2019-01-28T00:18:25.259Z,-0.20
2019-01-28T00:20:56.088Z,-0.20
2019-01-28T00:23:26.607Z,-0.20
2019-01-28T00:25:57.068Z,-0.30
2019-01-28T00:28:27.572Z,-0.30
2019-01-28T00:30:58.035Z,-0.30
2019-01-28T00:33:28.604Z,-0.30
2019-01-28T00:35:59.108Z,-0.20
2019-01-28T00:38:29.573Z,-0.20
2019-01-28T00:41:00.083Z,-0.20
2019-01-28T00:43:30.617Z,-0.10
2019-01-28T00:46:01.195Z,-0.10
2019-01-28T00:48:31.668Z,-0.10
2019-01-28T00:51:02.170Z,-0.10
2019-01-28T00:53:32.655Z,-0.10
2019-01-28T00:56:03.149Z,-0.10
2019-01-28T00:58:33.647Z,-0.10
2019-01-28T01:01:04.288Z,-0.10
2019-01-28T01:03:35.005Z,-0.10
2019-01-28T01:06:05.632Z,-0.10
2019-01-28T01:08:36.145Z,-0.10
2019-01-28T01:11:06.631Z,0.00
2019-01-28T01:13:37.146Z,-0.10
2019-01-28T01:16:07.619Z,-0.10
2019-01-28T01:18:38.352Z,-0.10
2019-01-28T01:21:08.955Z,-0.10
2019-01-28T01:23:39.471Z,-0.10
2019-01-28T01:26:10.003Z,-0.10
2019-01-28T01:28:40.573Z,-0.10
2019-01-28T01:31:11.107Z,-0.10
2019-01-28T01:33:43.162Z,-0.10
2019-01-28T01:36:13.622Z,-0.20
2019-01-28T01:38:44.127Z,-0.10
2019-01-28T01:41:14.593Z,-0.10
2019-01-28T01:43:45.265Z,-0.10
2019-01-28T01:46:15.729Z,-0.10
2019-01-28T01:48:46.247Z,-0.10
2019-01-28T01:51:16.728Z,-0.10
2019-01-28T01:53:47.236Z,-0.10
2019-01-28T01:56:17.703Z,0.00
2019-01-28T01:58:48.213Z,0.00
2019-01-28T02:01:18.751Z,0.00
2019-01-28T02:03:49.359Z,0.00
2019-01-28T02:06:19.803Z,0.00
2019-01-28T02:08:51.387Z,0.00
2019-01-28T02:11:21.845Z,0.00
2019-01-28T02:13:52.356Z,-0.10
2019-01-28T02:16:22.818Z,-0.10
2019-01-28T02:18:53.341Z,-0.10
2019-01-28T02:21:23.882Z,-0.10
2019-01-28T02:23:54.561Z,-0.10
2019-01-28T02:26:25.095Z,-0.10
2019-01-28T02:28:55.604Z,0.00
2019-01-28T02:31:26.142Z,-0.10
2019-01-28T02:33:57.625Z,0.00
2019-01-28T02:36:28.089Z,0.00
2019-01-28T02:38:58.550Z,0.00
2019-01-28T02:41:29.054Z,0.00
2019-01-28T02:43:59.511Z,0.00
2019-01-28T02:46:30.027Z,-0.10
2019-01-28T02:49:00.490Z,0.00
2019-01-28T02:51:30.997Z,0.00
2019-01-28T02:54:01.471Z,0.00
2019-01-28T02:56:31.996Z,-0.10
2019-01-28T02:59:02.458Z,-0.20
2019-01-28T03:01:32.980Z,-0.20
2019-01-28T03:04:03.453Z,-0.20
2019-01-28T03:06:33.956Z,-0.20
2019-01-28T03:09:06.778Z,-0.10
2019-01-28T03:11:37.324Z,-0.10
2019-01-28T03:14:07.792Z,-0.10
2019-01-28T03:16:38.389Z,-0.10
2019-01-28T03:19:08.935Z,-0.10
2019-01-28T03:21:39.445Z,-0.10
2019-01-28T03:24:09.988Z,-0.10
2019-01-28T03:26:40.491Z,-0.10
2019-01-28T03:29:10.962Z,-0.10
2019-01-28T03:31:41.472Z,-0.10
2019-01-28T03:34:11.931Z,-0.10
2019-01-28T03:36:42.430Z,-0.20
2019-01-28T03:39:12.893Z,-0.20
2019-01-28T03:41:43.396Z,-0.20
2019-01-28T03:44:13.892Z,-0.20
2019-01-28T03:46:44.388Z,-0.20
2019-01-28T03:49:14.861Z,-0.10
2019-01-28T03:51:45.435Z,-0.10
2019-01-28T03:54:15.955Z,-0.10
2019-01-28T03:56:46.495Z,-0.10
2019-01-28T03:59:16.961Z,-0.10
2019-01-28T04:01:47.468Z,-0.10
2019-01-28T04:04:17.972Z,-0.10
2019-01-28T04:06:48.482Z,-0.10
2019-01-28T04:09:18.953Z,-0.10
2019-01-28T04:11:49.460Z,0.00
2019-01-28T04:14:19.923Z,-0.10
2019-01-28T04:16:50.426Z,-0.10
2019-01-28T04:19:20.889Z,0.00
2019-01-28T04:21:51.390Z,0.00
2019-01-28T04:24:21.849Z,0.00
2019-01-28T04:26:52.351Z,0.00
2019-01-28T04:29:22.814Z,-0.10
2019-01-28T04:31:53.413Z,-0.10
2019-01-28T04:34:23.878Z,-0.10
2019-01-28T04:36:54.373Z,-0.10
2019-01-28T04:39:24.848Z,-0.10
2019-01-28T04:41:55.351Z,-0.10
2019-01-28T04:44:25.822Z,-0.10
2019-01-28T04:46:56.312Z,-0.10
2019-01-28T04:49:26.788Z,-0.10
2019-01-28T04:51:57.284Z,-0.10
2019-01-28T04:54:27.755Z,-0.10
2019-01-28T04:56:58.270Z,-0.10
2019-01-28T04:59:28.757Z,0.00
2019-01-28T05:01:59.227Z,-0.10
2019-01-28T05:04:29.720Z,-0.10
2019-01-28T05:07:00.230Z,-0.10
2019-01-28T05:09:30.695Z,-0.10
2019-01-28T05:12:02.063Z,-0.10
2019-01-28T05:14:32.543Z,-0.10
2019-01-28T05:17:03.045Z,-0.10
2019-01-28T05:19:33.515Z,-0.10
2019-01-28T05:22:04.036Z,-0.10
2019-01-28T05:24:34.501Z,-0.10
2019-01-28T05:27:05.150Z,-0.10
2019-01-28T05:29:35.625Z,-0.10
2019-01-28T05:32:06.573Z,-0.10
2019-01-28T05:34:37.105Z,-0.10
2019-01-28T05:37:07.613Z,-0.10
2019-01-28T05:39:38.076Z,-0.10
2019-01-28T05:42:08.648Z,-0.10
2019-01-28T05:44:39.143Z,-0.10
2019-01-28T05:47:09.620Z,-0.10
2019-01-28T05:49:40.110Z,-0.10
2019-01-28T05:52:10.745Z,-0.10
2019-01-28T05:54:42.053Z,0.00
2019-01-28T05:57:12.542Z,0.00
2019-01-28T05:59:43.053Z,0.00
2019-01-28T06:02:13.510Z,0.00
2019-01-28T06:04:44.004Z,0.00
2019-01-28T06:07:14.497Z,0.00
2019-01-28T06:09:44.956Z,0.00
2019-01-28T06:12:15.526Z,0.10
2019-01-28T06:14:45.999Z,0.10
2019-01-28T06:17:16.489Z,0.00
2019-01-28T06:19:48.033Z,0.10
2019-01-28T06:22:18.524Z,0.00
2019-01-28T06:24:48.984Z,0.00
2019-01-28T06:27:19.557Z,0.00
2019-01-28T06:29:50.030Z,-0.10
2019-01-28T06:32:20.541Z,0.00
2019-01-28T06:34:51.886Z,-0.10
2019-01-28T06:37:22.451Z,0.00
2019-01-28T06:39:52.929Z,0.00
2019-01-28T06:42:23.432Z,0.00
2019-01-28T06:44:53.927Z,0.00
2019-01-28T06:47:24.413Z,0.00
2019-01-28T06:49:55.485Z,0.00
2019-01-28T06:52:25.949Z,0.00
2019-01-28T06:54:56.431Z,0.00
2019-01-28T06:57:26.973Z,0.00
2019-01-28T06:59:57.477Z,0.00
2019-01-28T07:02:28.021Z,0.00
2019-01-28T07:04:58.478Z,0.00
2019-01-28T07:07:29.012Z,0.00
2019-01-28T07:09:59.477Z,0.00
2019-01-28T07:12:29.983Z,0.00
2019-01-28T07:15:00.446Z,0.10
2019-01-28T07:17:31.502Z,0.10
2019-01-28T07:20:02.437Z,0.10
2019-01-28T07:22:33.023Z,0.20
2019-01-28T07:25:03.646Z,0.20
2019-01-28T07:27:34.152Z,0.20
2019-01-28T07:30:11.503Z,0.30
2019-01-28T07:32:41.992Z,0.30
2019-01-28T07:35:14.204Z,0.40
2019-01-28T07:37:44.706Z,0.30
2019-01-28T07:40:18.682Z,0.40
2019-01-28T07:42:49.168Z,0.40
2019-01-28T07:45:27.072Z,0.40
2019-01-28T07:48:02.689Z,0.40
2019-01-28T07:50:29.915Z,0.50
2019-01-28T07:53:00.377Z,0.50
2019-01-28T07:55:32.699Z,0.50
2019-01-28T07:58:03.894Z,0.50
2019-01-28T08:00:35.525Z,0.60
2019-01-28T08:03:06.551Z,0.50
2019-01-28T08:05:37.153Z,0.50
2019-01-28T08:08:07.682Z,0.50
2019-01-28T08:10:38.172Z,0.50
2019-01-28T08:13:08.902Z,0.50
2019-01-28T08:15:39.497Z,0.50
2019-01-28T08:18:11.057Z,0.50
2019-01-28T08:20:41.658Z,0.50
2019-01-28T08:23:12.144Z,0.40
2019-01-28T08:25:42.661Z,0.40
2019-01-28T08:28:15.672Z,0.40
2019-01-28T08:30:49.621Z,0.40
2019-01-28T08:33:20.081Z,0.50
2019-01-28T08:35:50.584Z,0.50
2019-01-28T08:38:21.042Z,0.60
2019-01-28T08:40:52.691Z,0.60
2019-01-28T08:43:23.159Z,0.60
2019-01-28T08:45:55.139Z,0.70
2019-01-28T08:48:26.340Z,0.70
2019-01-28T08:50:56.851Z,0.70
2019-01-28T08:53:27.335Z,0.70
2019-01-28T08:55:58.658Z,0.80
2019-01-28T08:58:29.241Z,0.80
2019-01-28T09:00:59.875Z,0.80
2019-01-28T09:03:30.355Z,0.80
2019-01-28T09:06:00.891Z,0.90
2019-01-28T09:08:31.451Z,0.90
2019-01-28T09:11:01.936Z,0.90
2019-01-28T09:13:32.419Z,0.90
2019-01-28T09:16:02.866Z,0.90
2019-01-28T09:18:33.354Z,0.90
2019-01-28T09:21:03.932Z,0.90
2019-01-28T09:23:34.484Z,1.00
2019-01-28T09:26:06.583Z,1.00
2019-01-28T09:28:37.336Z,1.00
2019-01-28T09:31:08.035Z,1.00
2019-01-28T09:33:38.544Z,1.00
2019-01-28T09:36:09.016Z,1.10
2019-01-28T09:38:39.745Z,1.10
2019-01-28T09:41:10.274Z,1.10
2019-01-28T09:43:40.892Z,1.20
2019-01-28T09:46:11.321Z,1.20
2019-01-28T09:48:41.822Z,1.20
2019-01-28T09:51:13.239Z,1.10
2019-01-28T09:53:43.840Z,1.10
2019-01-28T09:56:14.446Z,1.10
2019-01-28T09:58:44.902Z,1.10
2019-01-28T10:01:15.465Z,1.10
2019-01-28T10:03:46.856Z,1.20
2019-01-28T10:06:17.418Z,1.20
2019-01-28T10:08:47.882Z,1.20
2019-01-28T10:11:18.369Z,1.20
2019-01-28T10:13:48.835Z,1.10
2019-01-28T10:16:19.317Z,1.20
2019-01-28T10:18:49.794Z,1.10
2019-01-28T10:21:20.370Z,1.20
2019-01-28T10:23:50.828Z,1.20
2019-01-28T10:26:21.388Z,1.20
2019-01-28T10:28:52.707Z,1.20
2019-01-28T10:31:23.560Z,1.20
2019-01-28T10:33:54.104Z,1.30
2019-01-28T10:36:24.746Z,1.40
2019-01-28T10:38:55.254Z,2.20
2019-01-28T10:41:25.787Z,1.40
2019-01-28T10:43:56.372Z,1.40
2019-01-28T10:46:26.837Z,1.50
2019-01-28T10:48:57.362Z,1.50
2019-01-28T10:51:27.901Z,1.50
2019-01-28T10:53:58.391Z,1.50
2019-01-28T10:56:28.851Z,1.50
2019-01-28T10:58:59.339Z,1.40
2019-01-28T11:01:29.907Z,1.40
2019-01-28T11:04:00.471Z,1.40
2019-01-28T11:06:30.956Z,1.40
2019-01-28T11:09:01.431Z,1.40
2019-01-28T11:11:32.040Z,1.40
2019-01-28T11:14:02.589Z,1.40
2019-01-28T11:16:33.210Z,1.50
2019-01-28T11:19:03.761Z,1.70
2019-01-28T11:21:34.273Z,1.70
2019-01-28T11:24:05.472Z,1.80
2019-01-28T11:26:36.066Z,1.90
2019-01-28T11:29:06.670Z,1.90
2019-01-28T11:31:37.274Z,1.90
2019-01-28T11:34:07.917Z,1.80
2019-01-28T11:36:38.522Z,1.90
2019-01-28T11:39:10.972Z,1.90
2019-01-28T11:41:41.608Z,1.90
2019-01-28T11:44:12.271Z,1.90
2019-01-28T11:46:42.778Z,1.90
2019-01-28T11:49:13.392Z,2.00
2019-01-28T11:51:43.955Z,1.90
2019-01-28T11:54:14.416Z,1.90
2019-01-28T11:56:44.907Z,1.80
2019-01-28T11:59:15.371Z,1.70
2019-01-28T12:01:46.641Z,1.70
2019-01-28T12:04:19.178Z,1.70
2019-01-28T12:06:51.519Z,1.80
2019-01-28T12:09:25.346Z,1.80
2019-01-28T12:11:55.836Z,1.80
2019-01-28T12:14:26.340Z,1.80
2019-01-28T12:16:56.805Z,1.70
2019-01-28T12:19:27.301Z,1.70
2019-01-28T12:21:57.775Z,1.80
2019-01-28T12:24:28.252Z,1.80
2019-01-28T12:26:59.587Z,1.90
2019-01-28T12:29:30.077Z,1.90
2019-01-28T12:32:00.546Z,1.90
2019-01-28T12:34:32.727Z,1.90
2019-01-28T12:37:03.178Z,1.90
2019-01-28T12:39:33.690Z,2.00
2019-01-28T12:42:05.775Z,2.00
2019-01-28T12:44:36.414Z,2.10
2019-01-28T12:47:06.870Z,2.10
2019-01-28T12:49:37.424Z,2.10
2019-01-28T12:52:07.955Z,2.10
2019-01-28T12:54:38.456Z,2.20
2019-01-28T12:57:08.976Z,2.20
2019-01-28T12:59:39.512Z,2.20
2019-01-28T13:02:10.083Z,2.20
2019-01-28T13:04:42.265Z,2.20
2019-01-28T13:07:12.771Z,2.10
2019-01-28T13:09:43.291Z,2.00
2019-01-28T13:12:14.517Z,2.00
2019-01-28T13:14:44.986Z,2.00
2019-01-28T13:17:16.143Z,1.90
2019-01-28T13:19:46.664Z,1.80
2019-01-28T13:22:17.134Z,1.80
2019-01-28T13:24:47.669Z,1.70
2019-01-28T13:27:18.640Z,1.70
2019-01-28T13:29:49.107Z,1.70
2019-01-28T13:32:19.613Z,1.60
2019-01-28T13:34:50.096Z,1.60
2019-01-28T13:37:22.110Z,1.50
2019-01-28T13:39:52.592Z,1.50
2019-01-28T13:42:23.115Z,1.50
2019-01-28T13:44:53.639Z,1.50
2019-01-28T13:47:26.685Z,1.50
2019-01-28T13:49:57.271Z,1.50
2019-01-28T13:52:27.729Z,1.50
2019-01-28T13:54:58.291Z,1.50
2019-01-28T13:57:28.803Z,1.50
2019-01-28T13:59:59.417Z,1.60
2019-01-28T14:02:32.765Z,1.60
2019-01-28T14:05:04.324Z,1.60
2019-01-28T14:07:34.966Z,1.50
2019-01-28T14:10:14.514Z,1.50
2019-01-28T14:12:46.801Z,1.60
2019-01-28T14:15:33.267Z,1.60
2019-01-28T14:18:04.474Z,1.60
2019-01-28T14:20:39.618Z,1.60
2019-01-28T14:23:10.186Z,1.60
2019-01-28T14:25:40.652Z,1.60
2019-01-28T14:28:11.366Z,1.60
2019-01-28T14:30:45.339Z,1.60
2019-01-28T14:33:15.897Z,1.60
2019-01-28T14:35:46.531Z,1.60
2019-01-28T14:38:17.131Z,1.60
2019-01-28T14:40:47.761Z,1.60
2019-01-28T14:43:18.288Z,1.60
2019-01-28T14:45:48.840Z,1.60
2019-01-28T14:48:19.409Z,1.60
2019-01-28T14:50:49.941Z,1.60
2019-01-28T14:53:25.609Z,1.70
2019-01-28T14:55:56.136Z,1.70
2019-01-28T14:58:26.632Z,1.70
2019-01-28T15:00:57.435Z,1.70
2019-01-28T15:03:29.766Z,1.70
2019-01-28T15:06:00.234Z,1.70
2019-01-28T15:08:31.818Z,1.70
2019-01-28T15:11:05.484Z,1.60
2019-01-28T15:13:35.976Z,1.60
2019-01-28T15:16:09.009Z,1.60
2019-01-28T15:18:39.337Z,1.50
2019-01-28T15:21:09.933Z,1.50
2019-01-28T15:23:40.394Z,1.50
2019-01-28T15:26:11.484Z,1.50
2019-01-28T15:28:42.015Z,1.40
2019-01-28T15:31:12.475Z,1.40
2019-01-28T15:33:44.541Z,1.40
2019-01-28T15:36:15.700Z,1.40
2019-01-28T15:38:46.163Z,1.40
2019-01-28T15:41:16.655Z,1.40
2019-01-28T15:43:47.886Z,1.40
2019-01-28T15:46:18.653Z,1.40
2019-01-28T15:48:52.192Z,1.40
2019-01-28T15:51:22.670Z,1.30
2019-01-28T15:53:53.177Z,1.30
2019-01-28T15:56:23.689Z,1.30
2019-01-28T15:58:54.179Z,1.30
2019-01-28T16:01:24.643Z,1.20
2019-01-28T16:03:55.131Z,1.20
2019-01-28T16:06:25.597Z,1.20
2019-01-28T16:08:56.101Z,1.20
2019-01-28T16:11:26.574Z,1.20
2019-01-28T16:13:57.073Z,1.30
2019-01-28T16:16:27.558Z,1.30
2019-01-28T16:18:58.069Z,1.30
2019-01-28T16:21:29.996Z,1.30
2019-01-28T16:24:01.073Z,1.30
2019-01-28T16:26:31.649Z,1.30
2019-01-28T16:29:02.120Z,1.30
2019-01-28T16:31:33.592Z,1.30
2019-01-28T16:34:04.121Z,1.30
2019-01-28T16:36:34.625Z,1.20
2019-01-28T16:39:08.183Z,1.20
2019-01-28T16:41:39.017Z,1.20
2019-01-28T16:44:09.606Z,1.20
2019-01-28T16:46:40.126Z,1.20
2019-01-28T16:49:10.716Z,1.20
2019-01-28T16:51:41.207Z,1.20
2019-01-28T16:54:11.813Z,1.20
2019-01-28T16:56:42.332Z,1.20
2019-01-28T16:59:12.807Z,1.20
2019-01-28T17:01:43.377Z,1.20
2019-01-28T17:04:13.909Z,1.20
2019-01-28T17:06:47.333Z,1.20
2019-01-28T17:09:17.829Z,1.10
2019-01-28T17:11:48.337Z,1.10
2019-01-28T17:14:18.818Z,1.10
2019-01-28T17:16:49.658Z,1.10
2019-01-28T17:19:20.126Z,1.20
2019-01-28T17:21:50.632Z,1.10
2019-01-28T17:24:21.096Z,1.20
2019-01-28T17:26:51.633Z,1.20
2019-01-28T17:29:22.100Z,1.20
2019-01-28T17:31:52.592Z,1.20
2019-01-28T17:34:23.057Z,1.20
2019-01-28T17:36:53.563Z,1.20
2019-01-28T17:39:27.020Z,1.20
2019-01-28T17:41:57.532Z,1.20
2019-01-28T17:44:27.994Z,1.30
2019-01-28T17:46:58.521Z,1.20
2019-01-28T17:49:28.982Z,1.20
2019-01-28T17:51:59.477Z,1.20
2019-01-28T17:54:29.971Z,1.20
2019-01-28T17:57:00.483Z,1.20
2019-01-28T17:59:30.985Z,1.20
2019-01-28T18:02:01.500Z,1.10
2019-01-28T18:04:32.689Z,1.10
2019-01-28T18:07:03.148Z,1.00
2019-01-28T18:09:33.734Z,1.00
2019-01-28T18:12:04.512Z,1.00
2019-01-28T18:14:35.017Z,1.00
2019-01-28T18:17:05.587Z,0.90
2019-01-28T18:19:37.108Z,0.90
2019-01-28T18:22:07.736Z,0.90
2019-01-28T18:24:38.228Z,0.90
2019-01-28T18:27:08.702Z,0.90
2019-01-28T18:29:39.212Z,0.90
2019-01-28T18:32:09.701Z,0.90
2019-01-28T18:34:40.211Z,0.80
2019-01-28T18:37:10.709Z,0.80
2019-01-28T18:39:41.222Z,0.80
2019-01-28T18:42:11.705Z,0.80
2019-01-28T18:44:42.178Z,0.80
2019-01-28T18:47:12.739Z,0.80
2019-01-28T18:49:44.739Z,0.80
2019-01-28T18:52:15.234Z,0.90
2019-01-28T18:54:45.700Z,1.00
2019-01-28T18:57:16.196Z,1.10
2019-01-28T18:59:46.654Z,1.10
2019-01-28T19:02:17.154Z,1.20
2019-01-28T19:04:47.650Z,1.30
2019-01-28T19:07:28.576Z,1.20
2019-01-28T19:10:00.475Z,1.10
2019-01-28T19:12:32.849Z,1.00
2019-01-28T19:15:05.146Z,1.00
2019-01-28T19:17:37.243Z,1.10
2019-01-28T19:20:27.592Z,1.10
2019-01-28T19:22:58.192Z,1.10
2019-01-28T19:25:30.613Z,1.00
2019-01-28T19:28:01.156Z,0.90
2019-01-28T19:30:32.600Z,0.90
2019-01-28T19:33:03.118Z,0.90
2019-01-28T19:35:33.689Z,1.00
2019-01-28T19:38:04.153Z,1.00
2019-01-28T19:40:34.641Z,1.00
2019-01-28T19:43:05.377Z,1.00
2019-01-28T19:45:35.937Z,0.90
2019-01-28T19:48:06.951Z,0.90
2019-01-28T19:50:37.565Z,1.00
2019-01-28T19:53:08.217Z,1.00
2019-01-28T19:55:38.693Z,1.00
2019-01-28T19:58:09.188Z,1.00
2019-01-28T20:00:39.803Z,1.00
2019-01-28T20:03:10.914Z,0.90
2019-01-28T20:05:41.387Z,1.00
2019-01-28T20:08:16.198Z,1.00
2019-01-28T20:10:46.734Z,1.00
2019-01-28T20:13:17.203Z,1.00
2019-01-28T20:15:47.692Z,1.00
2019-01-28T20:18:18.254Z,1.00
2019-01-28T20:20:48.747Z,1.00
2019-01-28T20:23:19.204Z,1.00
2019-01-28T20:25:50.575Z,0.90
2019-01-28T20:28:22.563Z,0.90
2019-01-28T20:30:53.053Z,0.90
2019-01-28T20:33:23.525Z,0.80
2019-01-28T20:35:54.086Z,0.80
2019-01-28T20:38:24.591Z,0.70
2019-01-28T20:40:55.076Z,0.70
2019-01-28T20:43:25.552Z,0.70
2019-01-28T20:45:57.312Z,0.60
2019-01-28T20:48:28.979Z,0.50
2019-01-28T20:50:59.483Z,0.50
2019-01-28T20:53:29.922Z,0.40
2019-01-28T20:56:00.517Z,0.40
2019-01-28T20:58:32.549Z,0.40
2019-01-28T21:01:03.086Z,0.40
2019-01-28T21:03:33.571Z,0.40
2019-01-28T21:06:04.363Z,0.40
2019-01-28T21:08:34.860Z,0.40
2019-01-28T21:11:05.486Z,0.30
2019-01-28T21:13:35.948Z,0.20
2019-01-28T21:16:06.514Z,0.20
2019-01-28T21:18:36.968Z,0.20
2019-01-28T21:21:08.383Z,0.10
2019-01-28T21:23:38.848Z,0.10
2019-01-28T21:26:09.360Z,0.10
2019-01-28T21:28:39.814Z,0.00
2019-01-28T21:31:10.306Z,0.00
2019-01-28T21:33:40.767Z,0.00
2019-01-28T21:36:18.830Z,0.00
2019-01-28T21:38:49.285Z,0.00
2019-01-28T21:41:19.779Z,0.10
2019-01-28T21:43:50.287Z,0.10
2019-01-28T21:46:21.280Z,0.00
2019-01-28T21:48:51.960Z,0.00
2019-01-28T21:51:22.443Z,-0.10
2019-01-28T21:53:52.953Z,-0.10
2019-01-28T21:56:23.411Z,-0.10
2019-01-28T21:58:53.906Z,-0.10
2019-01-28T22:01:24.365Z,-0.20
2019-01-28T22:03:54.951Z,-0.20
2019-01-28T22:06:27.009Z,-0.20
2019-01-28T22:08:57.499Z,-0.30
2019-01-28T22:11:28.261Z,-0.30
2019-01-28T22:13:58.780Z,-0.30
2019-01-28T22:16:29.297Z,-0.30
2019-01-28T22:18:59.831Z,-0.40
2019-01-28T22:21:30.309Z,-0.30
2019-01-28T22:24:00.842Z,-0.40
2019-01-28T22:26:31.335Z,-0.50
2019-01-28T22:29:01.846Z,-0.50
2019-01-28T22:31:32.340Z,-0.60
2019-01-28T22:34:02.884Z,-0.60
2019-01-28T22:36:33.472Z,-0.60
2019-01-28T22:39:05.556Z,-0.60
2019-01-28T22:41:36.069Z,-0.60
2019-01-28T22:44:06.669Z,-0.60
2019-01-28T22:46:37.159Z,-0.60
2019-01-28T22:49:07.629Z,-0.60
2019-01-28T22:51:38.129Z,-0.60
2019-01-28T22:54:08.607Z,-0.60
2019-01-28T22:56:39.176Z,-0.60
2019-01-28T22:59:09.741Z,-0.60
2019-01-28T23:01:41.294Z,-0.60
2019-01-28T23:04:12.053Z,-0.60
2019-01-28T23:06:42.599Z,-0.60
2019-01-28T23:09:12.762Z,-0.60
2019-01-28T23:11:43.239Z,-0.60
2019-01-28T23:14:13.819Z,-0.60
2019-01-28T23:16:44.288Z,-0.60
2019-01-28T23:19:14.783Z,-0.60
2019-01-28T23:21:46.381Z,-0.60
2019-01-28T23:24:16.854Z,-0.70
2019-01-28T23:26:47.364Z,-0.70
2019-01-28T23:29:17.839Z,-0.70
2019-01-28T23:31:48.919Z,-0.70
2019-01-28T23:34:19.383Z,-0.70
2019-01-28T23:36:49.883Z,-0.70
2019-01-28T23:39:20.378Z,-0.70
2019-01-28T23:41:50.951Z,-0.70
2019-01-28T23:44:21.450Z,-0.80
2019-01-28T23:46:51.916Z,-0.80
2019-01-28T23:49:22.420Z,-0.80
2019-01-28T23:51:52.887Z,-0.90
2019-01-28T23:54:23.474Z,-0.90
2019-01-28T23:56:53.939Z,-0.90
2019-01-28T23:59:24.536Z,-1.00
